Airfield :
LOGIN :

Register | Disclaimer

   EN    FR    IT 

 










Legend :    VFR   Marginal VFR   IFR   Intensive IFR   Very Intensive IFR
Visi :
Ceiling :
>= 8 km
>= 3000ft
5 to 8 km
1000 to 3000 ft
1500m to 5 km
500 to 1000 ft
800 to 1500m
200 to 500 ft
< 800m
< 200 ft
Symbols :   Thunderstorms  Fog  Heavy snow  Heavy precipitations  Wind > 20 kt
SIGMETs :     Misc.  Thunderstorms  Icing  Turbulence  Mountain Waves  Volcanic Ashes







- Airport Elevation : 76 ft
- IATA code : KID


ESMK - Kristianstad

CURRENT METAR :
  • 231650Z AUTO 26006KT 9999 SCT029/// 10/07 Q1006

EXPIRED METARs :
  • 231620Z 27008KT 230V300 9999 FEW040 SCT078 10/07 Q1006
  • 231550Z 26006KT 9999 FEW030CB BKN049 10/07 Q1006
  • 231520Z 32010KT 9999 SHRA FEW030CB BKN039 11/06 Q1006
  • 231450Z 28007KT 230V300 9999 SCT044 13/06 Q1006
  • 231420Z AUTO 27008KT 230V300 9999 NCD 13/06 Q1006
  • 231350Z AUTO 26011KT 9999 NCD 14/04 Q1006

Expired Forecast.
No reported NOTAMs for that airfield.



MET'MAP, your aeronautical weather chart ! - Copyright ORBIFLY December 2007 - Disclaimer

ORBIFLY MET'MAP TEAM :

Programming & Development : Alexandra Zaïnal
Concept & Development : Baudouin d'Aumeries
Co-Development & Prog : Marc-Olivier Méhu
Technical & hardware support : Manuel Goepfert

Contact : metmap@orbifly.com




SOURCES & CREDITS :

   NOAA